Time;durP1;ratioP1;P1;durP2;ratioP2;P2;SDS_P1;SDS_P2;PMS_P1;PMS_P2;Temp;Humidity;BMP_temperature;BMP_pressure;BME280_temperature;BME280_humidity;BME280_pressure;Samples;Min_cycle;Max_cycle;Signal;HPM_P1;HPM_P2
2024/01/06 00:00:31;;;;;;;23.90;18.37;;;6.00;99.90;;;;;;4998469;28;20447;-67
2024/01/06 00:02:58;;;;;;;19.60;16.80;;;6.00;99.90;;;;;;4998573;28;20760;-66
2024/01/06 00:05:26;;;;;;;19.57;17.47;;;6.00;99.90;;;;;;4999059;28;20461;-67
2024/01/06 00:07:53;;;;;;;21.10;18.87;;;6.00;99.90;;;;;;4998550;28;20460;-67
2024/01/06 00:10:22;;;;;;;19.93;17.80;;;6.00;99.90;;;;;;4998782;28;20432;-66
2024/01/06 00:12:50;;;;;;;21.40;16.70;;;6.00;99.90;;;;;;4998356;28;20887;-66
2024/01/06 00:15:18;;;;;;;21.03;17.67;;;6.00;99.90;;;;;;4998749;28;20884;-66
2024/01/06 00:17:45;;;;;;;19.80;17.30;;;6.00;99.90;;;;;;4998502;28;20765;-66
2024/01/06 00:20:13;;;;;;;20.17;18.07;;;6.00;99.90;;;;;;4998330;28;20524;-67
2024/01/06 00:22:41;;;;;;;19.20;15.77;;;6.00;99.90;;;;;;4998050;28;20457;-66
2024/01/06 00:25:09;;;;;;;17.40;15.30;;;6.00;99.90;;;;;;4998126;28;20471;-66
2024/01/06 00:27:39;;;;;;;18.20;14.40;;;6.00;99.90;;;;;;4998297;28;20465;-66
2024/01/06 00:30:08;;;;;;;17.57;15.53;;;6.00;99.90;;;;;;4998460;28;20461;-66
2024/01/06 00:32:35;;;;;;;16.73;14.47;;;6.00;99.90;;;;;;4997593;28;20526;-66
2024/01/06 00:35:03;;;;;;;16.80;14.47;;;6.00;99.90;;;;;;4998055;28;20468;-66
2024/01/06 00:37:30;;;;;;;17.33;15.43;;;6.10;99.90;;;;;;4998746;28;20518;-66
2024/01/06 00:39:58;;;;;;;19.70;16.47;;;6.10;99.90;;;;;;4998513;28;20500;-66
2024/01/06 00:42:25;;;;;;;16.73;13.70;;;6.10;99.90;;;;;;4998281;28;20776;-66
2024/01/06 00:44:54;;;;;;;15.70;13.03;;;6.10;99.90;;;;;;4998455;28;20567;-66
2024/01/06 00:47:24;;;;;;;15.33;13.73;;;6.10;99.90;;;;;;4998140;28;20515;-66
2024/01/06 00:49:51;;;;;;;16.30;14.03;;;6.10;99.90;;;;;;4998035;28;20973;-66
2024/01/06 00:52:18;;;;;;;15.20;12.70;;;6.10;99.90;;;;;;4998041;28;20497;-66
2024/01/06 00:54:46;;;;;;;14.80;13.07;;;6.10;99.90;;;;;;4998189;28;20480;-66
2024/01/06 00:57:14;;;;;;;18.67;14.40;;;6.10;99.90;;;;;;4998045;28;20551;-66
2024/01/06 00:59:41;;;;;;;16.43;13.30;;;6.00;99.90;;;;;;4998197;28;20472;-67
2024/01/06 01:02:10;;;;;;;16.63;14.43;;;6.10;99.90;;;;;;4998075;28;20515;-67
2024/01/06 01:04:37;;;;;;;17.10;15.20;;;6.10;99.90;;;;;;4997737;28;20460;-67
2024/01/06 01:07:05;;;;;;;14.93;13.27;;;6.10;99.90;;;;;;4997292;28;20465;-67
2024/01/06 01:09:32;;;;;;;14.63;13.03;;;6.10;99.90;;;;;;4998105;28;20464;-67
2024/01/06 01:12:00;;;;;;;16.23;13.80;;;6.10;99.90;;;;;;4998122;28;20562;-67
2024/01/06 01:14:28;;;;;;;14.90;13.27;;;6.10;99.90;;;;;;4998161;28;20879;-67
2024/01/06 01:16:55;;;;;;;16.90;14.07;;;6.00;99.90;;;;;;4998420;28;20492;-67
2024/01/06 01:19:24;;;;;;;16.10;13.13;;;6.10;99.90;;;;;;4997050;28;20465;-67
2024/01/06 01:21:55;;;;;;;14.80;13.07;;;6.10;99.90;;;;;;4996409;28;20461;-67
2024/01/06 01:24:22;;;;;;;14.47;12.93;;;6.10;99.90;;;;;;4996486;28;20942;-67
2024/01/06 01:26:49;;;;;;;13.43;11.90;;;6.10;99.90;;;;;;4996249;28;20746;-67
2024/01/06 01:29:17;;;;;;;15.03;12.93;;;6.10;99.90;;;;;;4996428;28;20431;-67
2024/01/06 01:31:44;;;;;;;12.13;10.83;;;6.10;99.90;;;;;;4996636;28;20525;-67
2024/01/06 01:34:11;;;;;;;12.67;10.93;;;6.10;99.90;;;;;;4996955;28;20463;-67
2024/01/06 01:36:41;;;;;;;13.00;10.17;;;6.10;99.90;;;;;;4997721;28;20465;-67
2024/01/06 01:39:08;;;;;;;13.20;11.80;;;6.10;99.90;;;;;;4999597;28;20456;-67
2024/01/06 01:41:35;;;;;;;13.87;12.50;;;6.10;99.90;;;;;;5002735;28;20452;-68
2024/01/06 01:44:02;;;;;;;13.67;11.37;;;6.00;99.90;;;;;;5002211;28;20458;-67
2024/01/06 01:46:31;;;;;;;14.67;13.13;;;6.00;99.90;;;;;;5005164;28;20499;-67
2024/01/06 01:49:00;;;;;;;19.07;12.33;;;6.00;99.90;;;;;;5011256;28;20506;-68
2024/01/06 01:51:30;;;;;;;15.03;12.60;;;6.10;99.90;;;;;;5007930;28;20481;-67
2024/01/06 01:53:59;;;;;;;15.23;12.20;;;6.10;99.90;;;;;;5002473;28;20906;-67
2024/01/06 01:56:27;;;;;;;16.83;12.20;;;6.10;99.90;;;;;;5008963;28;20817;-67
2024/01/06 01:58:54;;;;;;;12.20;10.90;;;6.10;99.90;;;;;;5013446;28;20942;-66
2024/01/06 02:01:22;;;;;;;14.87;11.57;;;6.10;99.90;;;;;;5003917;28;20456;-67
2024/01/06 02:03:49;;;;;;;15.53;12.00;;;6.10;99.90;;;;;;4996948;28;20962;-67
2024/01/06 02:06:17;;;;;;;15.30;13.13;;;6.10;99.90;;;;;;5002314;28;20489;-68
2024/01/06 02:08:44;;;;;;;15.00;13.23;;;6.10;99.90;;;;;;5004555;28;20487;-68
2024/01/06 02:11:13;;;;;;;14.60;13.00;;;6.10;99.90;;;;;;5010675;28;20780;-66
2024/01/06 02:13:40;;;;;;;15.20;12.10;;;6.10;99.90;;;;;;5011024;28;20817;-68
2024/01/06 02:16:07;;;;;;;14.23;11.77;;;6.10;99.90;;;;;;5010012;28;20975;-66
2024/01/06 02:18:35;;;;;;;15.00;13.00;;;6.10;99.90;;;;;;5009142;28;20452;-66
2024/01/06 02:21:03;;;;;;;17.40;14.47;;;6.10;99.90;;;;;;5009830;28;20542;-66
2024/01/06 02:23:32;;;;;;;17.40;14.70;;;6.10;99.90;;;;;;5009174;28;20936;-66
2024/01/06 02:25:59;;;;;;;19.10;15.93;;;6.10;99.90;;;;;;5011337;28;20510;-65
2024/01/06 02:28:26;;;;;;;15.97;13.47;;;6.10;99.90;;;;;;5007976;28;20547;-66
2024/01/06 02:30:53;;;;;;;18.47;14.47;;;6.10;99.90;;;;;;5019238;28;20555;-66
2024/01/06 02:33:23;;;;;;;21.00;16.00;;;6.20;99.90;;;;;;5019566;28;20561;-66
2024/01/06 02:35:51;;;;;;;19.70;16.00;;;6.20;99.90;;;;;;5016412;28;20442;-66
2024/01/06 02:38:18;;;;;;;19.23;15.30;;;6.20;99.90;;;;;;5014116;28;20539;-66
2024/01/06 02:40:47;;;;;;;18.80;15.73;;;6.10;99.90;;;;;;5003135;28;20480;-67
2024/01/06 02:43:14;;;;;;;17.63;14.03;;;6.10;99.90;;;;;;4998687;28;20465;-67
2024/01/06 02:45:41;;;;;;;17.80;13.93;;;6.20;99.90;;;;;;4998006;28;20902;-67
2024/01/06 02:48:08;;;;;;;17.30;14.47;;;6.10;99.90;;;;;;4998018;28;20673;-66
2024/01/06 02:50:36;;;;;;;18.80;15.87;;;6.10;99.90;;;;;;4997601;28;20461;-67
2024/01/06 02:53:03;;;;;;;21.10;16.97;;;6.20;99.90;;;;;;4997404;28;20528;-67
2024/01/06 02:55:30;;;;;;;17.13;15.00;;;6.10;99.90;;;;;;4997517;28;20833;-68
2024/01/06 02:57:59;;;;;;;18.77;16.00;;;6.10;99.90;;;;;;4998475;28;20578;-67
2024/01/06 03:00:26;;;;;;;22.03;17.17;;;6.20;99.90;;;;;;4997807;28;20531;-67
2024/01/06 03:02:53;;;;;;;21.83;16.53;;;6.20;99.90;;;;;;4998148;28;20882;-68
2024/01/06 03:05:21;;;;;;;18.63;15.17;;;6.20;99.90;;;;;;4997934;28;20469;-69
2024/01/06 03:07:48;;;;;;;18.30;13.67;;;6.20;99.90;;;;;;4998099;28;20467;-68
2024/01/06 03:10:15;;;;;;;15.77;13.17;;;6.20;99.90;;;;;;4999382;28;20556;-67
2024/01/06 03:12:43;;;;;;;14.80;11.50;;;6.10;99.90;;;;;;4999591;28;20528;-66
2024/01/06 03:15:12;;;;;;;15.27;11.53;;;6.10;99.90;;;;;;4998056;28;20460;-66
2024/01/06 03:17:39;;;;;;;17.83;11.03;;;6.00;99.90;;;;;;4999367;28;20563;-66
2024/01/06 03:20:08;;;;;;;13.97;11.93;;;6.00;99.90;;;;;;4999387;28;20465;-66
2024/01/06 03:22:36;;;;;;;13.47;11.47;;;5.90;99.90;;;;;;4999392;28;20916;-67
2024/01/06 03:25:06;;;;;;;15.30;12.00;;;6.00;99.90;;;;;;4998944;28;20468;-66
2024/01/06 03:27:33;;;;;;;14.50;11.40;;;6.00;99.90;;;;;;4998864;28;20465;-67
2024/01/06 03:30:00;;;;;;;15.30;11.60;;;6.10;99.90;;;;;;4999171;28;20467;-67
2024/01/06 03:32:29;;;;;;;13.80;11.80;;;6.10;99.90;;;;;;4999053;28;20842;-66
2024/01/06 03:34:56;;;;;;;13.37;11.07;;;6.00;99.90;;;;;;4999037;28;20814;-66
2024/01/06 03:37:24;;;;;;;12.93;10.27;;;6.00;99.90;;;;;;4998922;28;20461;-66
2024/01/06 03:39:51;;;;;;;12.40;10.63;;;6.00;99.90;;;;;;4999270;28;20465;-66
2024/01/06 03:42:18;;;;;;;13.63;10.87;;;6.00;99.90;;;;;;4999500;28;20457;-68
2024/01/06 03:44:45;;;;;;;11.77;9.60;;;6.00;99.90;;;;;;4998910;28;20497;-67
2024/01/06 03:47:13;;;;;;;11.73;9.63;;;6.00;99.90;;;;;;4998690;28;20820;-67
2024/01/06 03:49:41;;;;;;;11.37;9.17;;;6.00;99.90;;;;;;4999290;28;20825;-67
2024/01/06 03:52:09;;;;;;;11.23;9.33;;;6.00;99.90;;;;;;4998719;28;20496;-67
2024/01/06 03:54:36;;;;;;;11.10;9.60;;;6.00;99.90;;;;;;4998680;28;20472;-67
2024/01/06 03:57:03;;;;;;;13.40;10.80;;;5.90;99.90;;;;;;4998622;28;20460;-67
2024/01/06 03:59:30;;;;;;;11.33;9.43;;;5.90;99.90;;;;;;4998637;28;20469;-67
2024/01/06 04:01:58;;;;;;;14.90;10.70;;;5.90;99.90;;;;;;4998788;28;20950;-67
2024/01/06 04:04:26;;;;;;;11.57;10.10;;;5.90;99.90;;;;;;4998006;28;20512;-67
2024/01/06 04:06:54;;;;;;;17.53;11.47;;;5.90;99.90;;;;;;4998487;28;20461;-67
2024/01/06 04:09:22;;;;;;;17.70;12.53;;;6.00;99.90;;;;;;4998393;28;20461;-67
2024/01/06 04:11:49;;;;;;;11.93;9.80;;;5.90;99.90;;;;;;4998203;28;20465;-67
2024/01/06 04:14:16;;;;;;;15.40;12.40;;;5.90;99.90;;;;;;4998515;28;20900;-66
2024/01/06 04:16:43;;;;;;;15.53;11.77;;;5.90;99.90;;;;;;4998465;28;20504;-67
2024/01/06 04:19:12;;;;;;;15.70;12.90;;;5.90;99.90;;;;;;4998414;28;20496;-67
2024/01/06 04:21:39;;;;;;;16.33;12.00;;;6.00;99.90;;;;;;4998222;28;20515;-67
2024/01/06 04:24:09;;;;;;;19.83;12.80;;;6.00;99.90;;;;;;4998053;28;20454;-67
2024/01/06 04:26:36;;;;;;;16.97;12.87;;;6.00;99.90;;;;;;4998061;28;20468;-67
2024/01/06 04:29:04;;;;;;;18.20;13.23;;;6.00;99.90;;;;;;4998228;28;20572;-67
2024/01/06 04:31:31;;;;;;;17.97;13.70;;;6.00;99.90;;;;;;4998070;28;20760;-67
2024/01/06 04:33:58;;;;;;;21.00;14.80;;;6.00;99.90;;;;;;4998165;28;20547;-67
2024/01/06 04:36:26;;;;;;;20.53;14.80;;;6.00;99.90;;;;;;4998051;28;20527;-67
2024/01/06 04:38:53;;;;;;;21.83;16.93;;;6.00;99.90;;;;;;4998059;28;20463;-67
2024/01/06 04:41:22;;;;;;;21.90;15.83;;;6.00;99.90;;;;;;4998011;28;20563;-67
2024/01/06 04:43:51;;;;;;;22.87;16.67;;;6.00;99.90;;;;;;4998172;28;20461;-67
2024/01/06 04:46:19;;;;;;;23.17;17.20;;;6.00;99.90;;;;;;4997864;28;20793;-67
2024/01/06 04:48:47;;;;;;;26.10;18.20;;;6.00;99.90;;;;;;4998086;28;20774;-67
2024/01/06 04:51:15;;;;;;;27.17;18.77;;;6.00;99.90;;;;;;4998116;28;20461;-67
2024/01/06 04:53:42;;;;;;;24.40;17.27;;;5.90;99.90;;;;;;4997383;28;20863;-67
2024/01/06 04:56:10;;;;;;;23.90;17.90;;;5.70;99.90;;;;;;4997987;28;20519;-66
2024/01/06 04:58:38;;;;;;;22.77;16.40;;;5.40;99.90;;;;;;4997758;28;20464;-67
2024/01/06 05:01:06;;;;;;;22.07;15.63;;;5.20;99.90;;;;;;4997817;28;20493;-67
2024/01/06 05:03:33;;;;;;;27.63;17.07;;;5.10;99.90;;;;;;4997801;28;20527;-67
2024/01/06 05:06:01;;;;;;;25.37;17.67;;;5.10;99.90;;;;;;4997762;28;20504;-67
2024/01/06 05:08:30;;;;;;;25.43;17.23;;;5.00;99.90;;;;;;4997726;28;20745;-67
2024/01/06 05:10:58;;;;;;;27.10;17.53;;;5.00;99.90;;;;;;4997973;28;20494;-67
2024/01/06 05:13:25;;;;;;;24.13;16.20;;;4.90;99.90;;;;;;4997496;28;20521;-67
2024/01/06 05:15:54;;;;;;;26.43;17.40;;;4.90;99.90;;;;;;4997633;28;20969;-67
2024/01/06 05:18:21;;;;;;;21.47;15.43;;;4.90;99.90;;;;;;4997756;28;20479;-67
2024/01/06 05:20:49;;;;;;;22.63;15.13;;;4.90;99.90;;;;;;4997990;28;20497;-67
2024/01/06 05:23:16;;;;;;;22.40;15.00;;;4.70;99.90;;;;;;4997428;28;20511;-67
2024/01/06 05:25:43;;;;;;;18.90;12.50;;;4.70;99.90;;;;;;4997776;28;20484;-67
2024/01/06 05:28:11;;;;;;;17.07;13.00;;;4.70;99.90;;;;;;4997674;28;20507;-67
2024/01/06 05:30:38;;;;;;;16.97;12.50;;;4.70;99.90;;;;;;4997800;28;20460;-67
2024/01/06 05:33:10;;;;;;;18.23;12.57;;;4.70;99.90;;;;;;4997664;28;20555;-67
2024/01/06 05:35:37;;;;;;;19.47;13.10;;;4.70;99.90;;;;;;4997633;28;20809;-67
2024/01/06 05:38:05;;;;;;;17.60;11.60;;;4.70;99.90;;;;;;4997753;28;20488;-68
2024/01/06 05:40:32;;;;;;;17.00;11.93;;;4.70;99.90;;;;;;5001924;28;20496;-68
2024/01/06 05:42:59;;;;;;;18.80;13.10;;;4.70;99.90;;;;;;5001656;28;20491;-68
2024/01/06 05:45:26;;;;;;;15.13;11.67;;;4.80;99.90;;;;;;5001401;28;20460;-67
2024/01/06 05:47:53;;;;;;;17.40;11.70;;;4.70;99.90;;;;;;5000728;28;20500;-67
2024/01/06 05:50:22;;;;;;;16.47;11.67;;;4.70;99.90;;;;;;5001419;28;20844;-67
2024/01/06 05:52:50;;;;;;;17.50;12.80;;;4.60;99.90;;;;;;5000720;28;20535;-67
2024/01/06 05:55:17;;;;;;;17.37;12.33;;;4.60;99.90;;;;;;5000954;28;20491;-66
2024/01/06 05:57:44;;;;;;;15.27;11.53;;;4.60;99.90;;;;;;5000972;28;20811;-66
2024/01/06 06:00:13;;;;;;;14.97;11.90;;;4.60;99.90;;;;;;5000883;28;20732;-66
2024/01/06 06:02:40;;;;;;;15.97;11.67;;;4.60;99.90;;;;;;5000719;28;20453;-66
2024/01/06 06:05:08;;;;;;;17.63;13.07;;;4.60;99.90;;;;;;5001365;28;20596;-67
2024/01/06 06:07:38;;;;;;;17.00;12.57;;;4.70;99.90;;;;;;5000453;28;20584;-67
2024/01/06 06:10:08;;;;;;;17.43;11.60;;;4.80;99.90;;;;;;5000717;28;20534;-66
2024/01/06 06:12:36;;;;;;;17.00;11.30;;;4.70;99.90;;;;;;4999983;28;20500;-67
2024/01/06 06:15:03;;;;;;;16.73;11.60;;;4.70;99.90;;;;;;5000964;28;20439;-67
2024/01/06 06:17:31;;;;;;;15.90;11.67;;;4.50;99.90;;;;;;5000670;28;20859;-66
2024/01/06 06:19:58;;;;;;;19.10;11.50;;;4.60;99.90;;;;;;5000523;28;20475;-66
2024/01/06 06:22:29;;;;;;;17.10;11.93;;;4.50;99.90;;;;;;5000935;28;20550;-66
2024/01/06 06:24:58;;;;;;;14.60;9.63;;;4.40;99.90;;;;;;5000070;28;20495;-67
2024/01/06 06:27:26;;;;;;;16.17;11.27;;;4.50;99.90;;;;;;4999764;28;20664;-67
2024/01/06 06:29:53;;;;;;;14.60;10.50;;;4.50;99.90;;;;;;4999142;28;20456;-66
2024/01/06 06:32:20;;;;;;;16.13;10.90;;;4.50;99.90;;;;;;5000390;28;20461;-67
2024/01/06 06:34:48;;;;;;;18.00;11.80;;;4.50;99.90;;;;;;5000475;28;20580;-66
2024/01/06 06:37:15;;;;;;;16.20;11.63;;;4.50;99.90;;;;;;5000543;28;20471;-67
2024/01/06 06:39:44;;;;;;;17.40;11.30;;;4.40;99.90;;;;;;5000191;28;20472;-67
2024/01/06 06:42:13;;;;;;;19.50;12.20;;;4.50;99.90;;;;;;5000714;28;20465;-67
2024/01/06 06:44:40;;;;;;;18.73;11.17;;;4.50;99.90;;;;;;5000406;28;20560;-67
2024/01/06 06:47:07;;;;;;;17.33;12.30;;;4.50;99.90;;;;;;5000380;28;20513;-67
2024/01/06 06:49:34;;;;;;;18.33;12.50;;;4.60;99.90;;;;;;5000042;28;20460;-67
2024/01/06 06:52:03;;;;;;;18.10;12.77;;;4.60;99.90;;;;;;5000178;28;20453;-67
2024/01/06 06:54:30;;;;;;;19.50;13.23;;;4.60;99.90;;;;;;4999776;28;20493;-67
2024/01/06 06:56:58;;;;;;;18.10;12.40;;;4.70;99.90;;;;;;5000430;28;20461;-67
2024/01/06 06:59:26;;;;;;;17.60;12.70;;;4.70;99.90;;;;;;4999702;28;20937;-67
2024/01/06 07:01:53;;;;;;;22.80;13.80;;;4.60;99.90;;;;;;4999916;28;20488;-67
2024/01/06 07:04:21;;;;;;;19.07;12.23;;;4.60;99.90;;;;;;4999770;28;20436;-67
2024/01/06 07:06:48;;;;;;;17.70;12.70;;;4.60;99.90;;;;;;5000200;28;20496;-67
2024/01/06 07:09:15;;;;;;;19.40;12.60;;;4.70;99.90;;;;;;5000070;28;20511;-67
2024/01/06 07:11:42;;;;;;;18.37;13.37;;;4.60;99.90;;;;;;5009449;28;20890;-66
2024/01/06 07:14:10;;;;;;;20.87;14.63;;;4.50;99.90;;;;;;5019107;28;20496;-67
2024/01/06 07:16:39;;;;;;;19.83;13.20;;;4.50;99.90;;;;;;5019161;28;20500;-67
2024/01/06 07:19:06;;;;;;;19.47;12.80;;;4.50;99.90;;;;;;5019239;28;20519;-67
2024/01/06 07:21:33;;;;;;;19.20;13.90;;;4.60;99.90;;;;;;5018917;28;20456;-66
2024/01/06 07:24:02;;;;;;;21.07;14.57;;;4.60;99.90;;;;;;5019180;28;20457;-67
2024/01/06 07:26:29;;;;;;;19.90;13.70;;;4.60;99.90;;;;;;5019536;28;20743;-67
2024/01/06 07:28:56;;;;;;;21.23;14.63;;;4.60;99.90;;;;;;5019353;28;20504;-67
2024/01/06 07:31:24;;;;;;;22.03;14.43;;;4.60;99.90;;;;;;5019419;28;20543;-67
2024/01/06 07:33:52;;;;;;;21.20;13.63;;;4.50;99.90;;;;;;5017944;28;20492;-66
2024/01/06 07:36:21;;;;;;;19.93;12.20;;;4.60;99.90;;;;;;5018861;28;20558;-67
2024/01/06 07:38:48;;;;;;;18.57;12.57;;;4.50;99.90;;;;;;5019000;28;20492;-67
2024/01/06 07:41:15;;;;;;;18.27;12.27;;;4.50;99.90;;;;;;5019149;28;20539;-67
2024/01/06 07:43:42;;;;;;;19.37;12.50;;;4.50;99.90;;;;;;5018348;28;20491;-67
2024/01/06 07:46:10;;;;;;;19.63;12.27;;;4.50;99.90;;;;;;5018578;28;20844;-67
2024/01/06 07:48:37;;;;;;;16.63;11.50;;;4.50;99.90;;;;;;5018803;28;20460;-67
2024/01/06 07:51:06;;;;;;;17.70;10.90;;;4.50;99.90;;;;;;5018431;28;20481;-67
2024/01/06 07:53:33;;;;;;;16.70;11.27;;;4.50;99.90;;;;;;5017791;28;20487;-67
2024/01/06 07:56:01;;;;;;;17.90;11.50;;;4.50;99.90;;;;;;5018497;28;20464;-67
2024/01/06 07:58:28;;;;;;;14.70;10.43;;;4.40;99.90;;;;;;5018045;28;20460;-67
2024/01/06 08:00:55;;;;;;;17.67;10.67;;;4.40;99.90;;;;;;5017474;28;20468;-67
2024/01/06 08:03:23;;;;;;;15.43;9.80;;;4.30;99.90;;;;;;5018769;28;20584;-67
2024/01/06 08:05:50;;;;;;;17.23;9.90;;;4.30;99.90;;;;;;5018723;28;20464;-66
2024/01/06 08:08:19;;;;;;;15.90;10.40;;;4.40;99.90;;;;;;5018599;28;20519;-67
2024/01/06 08:10:47;;;;;;;17.17;10.70;;;4.40;99.90;;;;;;5018535;28;20507;-66
2024/01/06 08:13:14;;;;;;;14.50;10.17;;;4.40;99.90;;;;;;5018421;28;20951;-65
2024/01/06 08:15:41;;;;;;;16.83;10.93;;;4.40;99.90;;;;;;5018219;28;20819;-66
2024/01/06 08:18:08;;;;;;;14.10;9.90;;;4.40;99.90;;;;;;5018096;28;20521;-67
2024/01/06 08:20:36;;;;;;;16.80;11.17;;;4.40;99.90;;;;;;5018780;28;20507;-66
2024/01/06 08:23:03;;;;;;;13.97;9.10;;;4.30;99.90;;;;;;5018673;28;20558;-66
2024/01/06 08:25:32;;;;;;;15.37;10.50;;;4.30;99.90;;;;;;5017787;28;20847;-66
2024/01/06 08:27:59;;;;;;;15.60;11.23;;;4.40;99.90;;;;;;5017947;28;20970;-66
2024/01/06 08:30:26;;;;;;;16.30;10.43;;;4.30;99.90;;;;;;5018275;28;20980;-67
2024/01/06 08:32:53;;;;;;;16.10;10.33;;;4.40;99.90;;;;;;5018515;28;20820;-67
2024/01/06 08:35:21;;;;;;;14.50;10.50;;;4.30;99.90;;;;;;5018424;28;20466;-67
2024/01/06 08:37:48;;;;;;;14.60;10.30;;;4.20;99.90;;;;;;5018239;28;20834;-66
2024/01/06 08:40:15;;;;;;;15.90;10.70;;;4.20;99.90;;;;;;5017453;28;20551;-66
2024/01/06 08:42:44;;;;;;;15.80;11.17;;;4.20;99.90;;;;;;5017211;28;20734;-67
2024/01/06 08:45:13;;;;;;;17.90;11.07;;;4.20;99.90;;;;;;5017919;28;20467;-67
2024/01/06 08:47:41;;;;;;;19.03;13.70;;;4.20;99.90;;;;;;5017754;28;20472;-67
2024/01/06 08:50:09;;;;;;;21.47;15.70;;;4.20;99.90;;;;;;5017813;28;20558;-66
2024/01/06 08:52:36;;;;;;;24.00;17.90;;;4.20;99.90;;;;;;5017888;28;20467;-67
2024/01/06 08:55:03;;;;;;;20.67;15.07;;;4.20;99.90;;;;;;5016517;28;20492;-66
2024/01/06 08:57:30;;;;;;;19.20;12.50;;;4.20;99.90;;;;;;5013795;28;20460;-67
2024/01/06 08:59:59;;;;;;;19.50;12.70;;;4.20;99.90;;;;;;5015231;28;20574;-67
2024/01/06 09:02:26;;;;;;;17.57;12.50;;;4.20;99.90;;;;;;5016223;28;20810;-67
2024/01/06 09:04:54;;;;;;;16.70;12.33;;;4.20;99.90;;;;;;5016499;28;20743;-66
2024/01/06 09:07:21;;;;;;;20.67;16.53;;;4.20;99.90;;;;;;5016821;28;20776;-67
2024/01/06 09:09:48;;;;;;;29.23;18.97;;;4.10;99.90;;;;;;5018034;28;20790;-67
2024/01/06 09:12:16;;;;;;;24.30;18.10;;;4.00;99.90;;;;;;5018489;28;20467;-67
2024/01/06 09:14:43;;;;;;;29.50;20.40;;;4.00;99.90;;;;;;5022282;28;20947;-67
2024/01/06 09:17:12;;;;;;;28.97;19.97;;;3.90;99.90;;;;;;5020617;28;20459;-66
2024/01/06 09:19:39;;;;;;;30.10;19.40;;;3.90;99.90;;;;;;5022127;28;20503;-67
2024/01/06 09:22:06;;;;;;;25.90;18.07;;;3.80;99.90;;;;;;5021945;28;20517;-67
2024/01/06 09:24:34;;;;;;;33.73;19.23;;;3.80;99.90;;;;;;5021758;28;20829;-66
2024/01/06 09:27:02;;;;;;;39.03;19.00;;;3.70;99.90;;;;;;5021978;28;20506;-66
2024/01/06 09:29:30;;;;;;;41.17;19.40;;;3.80;99.90;;;;;;5021202;28;20466;-66
2024/01/06 09:31:57;;;;;;;38.27;18.70;;;3.70;99.90;;;;;;5021839;28;20518;-67
2024/01/06 09:34:26;;;;;;;29.63;18.03;;;3.60;99.90;;;;;;5021789;28;20492;-66
2024/01/06 09:36:54;;;;;;;25.83;16.57;;;3.70;99.90;;;;;;5021651;28;20538;-66
2024/01/06 09:39:21;;;;;;;25.53;16.10;;;3.70;99.90;;;;;;5021644;28;20456;-65
2024/01/06 09:41:49;;;;;;;21.43;13.50;;;3.70;99.90;;;;;;5021118;28;20541;-66
2024/01/06 09:44:18;;;;;;;17.20;11.27;;;3.80;99.90;;;;;;5021118;28;20562;-66
2024/01/06 09:46:46;;;;;;;17.53;11.73;;;3.80;99.90;;;;;;5021493;28;20750;-66
2024/01/06 09:49:15;;;;;;;15.90;10.90;;;3.70;99.90;;;;;;5021204;28;20510;-66
2024/01/06 09:51:50;;;;;;;15.73;10.27;;;3.70;99.90;;;;;;5020793;28;20853;-66
2024/01/06 09:54:22;;;;;;;16.57;10.57;;;3.70;99.90;;;;;;5020673;28;20469;-66
2024/01/06 09:56:50;;;;;;;15.10;10.20;;;3.80;99.90;;;;;;5018168;28;20525;-65
2024/01/06 09:59:19;;;;;;;14.80;10.20;;;3.80;99.90;;;;;;5001248;28;20472;-65
2024/01/06 10:01:49;;;;;;;14.50;9.57;;;3.80;99.90;;;;;;5000869;28;20477;-66
2024/01/06 10:04:16;;;;;;;18.17;11.30;;;3.90;99.90;;;;;;5001203;28;20464;-66
2024/01/06 10:06:45;;;;;;;20.07;12.10;;;3.90;99.90;;;;;;4999627;28;20470;-65
2024/01/06 10:09:13;;;;;;;20.90;11.77;;;4.00;99.90;;;;;;4999175;28;20461;-65
2024/01/06 10:11:43;;;;;;;22.67;14.30;;;4.00;99.90;;;;;;4999345;28;20746;-66
2024/01/06 10:14:10;;;;;;;22.53;14.07;;;4.00;99.90;;;;;;4999680;28;20587;-65
2024/01/06 10:16:38;;;;;;;20.40;13.10;;;3.90;99.90;;;;;;4999297;28;20439;-66
2024/01/06 10:19:05;;;;;;;20.30;12.30;;;3.90;99.90;;;;;;5000092;28;21006;-66
2024/01/06 10:21:33;;;;;;;24.13;14.47;;;3.90;99.90;;;;;;5000428;28;20468;-66
2024/01/06 10:24:03;;;;;;;23.93;13.90;;;3.80;99.90;;;;;;4999955;28;20456;-66
2024/01/06 10:26:32;;;;;;;21.73;14.03;;;3.90;99.90;;;;;;5001246;28;20469;-66
2024/01/06 10:29:00;;;;;;;18.80;12.77;;;3.90;99.90;;;;;;5001252;28;20603;-65
2024/01/06 10:31:30;;;;;;;21.87;14.10;;;3.90;99.90;;;;;;5000652;28;20492;-65
2024/01/06 10:33:58;;;;;;;26.20;13.13;;;3.90;99.90;;;;;;5000048;28;20497;-66
2024/01/06 10:36:27;;;;;;;21.13;13.17;;;3.80;99.90;;;;;;5000553;28;20468;-65
2024/01/06 10:38:54;;;;;;;20.10;13.43;;;3.80;99.90;;;;;;5000233;28;20519;-66
2024/01/06 10:41:25;;;;;;;19.73;12.20;;;3.90;99.90;;;;;;5000662;28;20500;-66
2024/01/06 10:43:53;;;;;;;23.50;14.90;;;3.80;99.90;;;;;;5000456;28;20469;-66
2024/01/06 10:46:20;;;;;;;24.00;14.67;;;3.80;99.90;;;;;;5000296;28;20465;-66
2024/01/06 10:48:50;;;;;;;24.57;15.13;;;3.90;99.90;;;;;;5000534;28;20891;-66
2024/01/06 10:51:17;;;;;;;27.80;16.20;;;3.90;99.90;;;;;;5000865;28;20519;-66
2024/01/06 10:53:45;;;;;;;28.27;16.47;;;3.70;99.90;;;;;;4999719;28;20487;-66
2024/01/06 10:56:13;;;;;;;31.47;17.57;;;3.70;99.90;;;;;;4999895;28;20461;-66
2024/01/06 10:58:47;;;;;;;33.30;18.07;;;3.60;99.90;;;;;;5000448;28;20468;-65
2024/01/06 11:01:15;;;;;;;33.00;18.90;;;3.50;99.90;;;;;;5000786;28;20975;-66
2024/01/06 11:03:44;;;;;;;39.00;20.97;;;3.50;99.90;;;;;;5000062;28;20476;-65
2024/01/06 11:06:12;;;;;;;34.60;21.33;;;3.60;99.90;;;;;;5000407;28;20919;-66
2024/01/06 11:08:49;;;;;;;42.10;24.00;;;3.60;99.90;;;;;;5000622;28;20952;-65
2024/01/06 11:11:18;;;;;;;43.17;21.33;;;3.70;99.90;;;;;;5000393;28;20899;-66
2024/01/06 11:13:47;;;;;;;31.53;18.97;;;3.70;99.90;;;;;;5000134;28;20468;-66
2024/01/06 11:16:35;;;;;;;36.30;20.10;;;3.80;99.90;;;;;;5000080;28;20557;-66
2024/01/06 11:19:03;;;;;;;28.43;16.50;;;3.70;99.90;;;;;;5000250;28;20475;-66
2024/01/06 11:21:35;;;;;;;32.10;17.37;;;3.70;99.90;;;;;;4999880;28;20473;-66
2024/01/06 11:24:20;;;;;;;24.60;15.60;;;3.70;99.90;;;;;;4999108;28;20507;-66
2024/01/06 11:26:54;;;;;;;28.03;16.47;;;3.90;99.90;;;;;;4999812;28;20461;-67
2024/01/06 11:29:23;;;;;;;27.63;15.37;;;3.90;99.90;;;;;;4999830;28;20561;-66
2024/01/06 11:32:19;;;;;;;22.33;14.03;;;3.70;99.90;;;;;;4998984;28;20463;-66
2024/01/06 11:34:50;;;;;;;25.27;13.03;;;3.70;99.90;;;;;;5009126;28;20926;-67
2024/01/06 11:37:20;;;;;;;15.53;10.20;;;3.80;99.90;;;;;;5017069;28;20525;-66
2024/01/06 11:39:47;;;;;;;19.43;11.80;;;3.90;99.90;;;;;;5015888;28;20860;-67
2024/01/06 11:42:15;;;;;;;15.00;10.20;;;3.80;99.90;;;;;;5018391;28;20468;-66
2024/01/06 11:44:51;;;;;;;10.20;6.83;;;3.90;99.90;;;;;;5018488;28;20460;-67
2024/01/06 11:47:23;;;;;;;13.00;8.10;;;3.90;99.90;;;;;;5018875;28;20464;-66
2024/01/06 11:49:57;;;;;;;11.50;7.10;;;4.00;99.90;;;;;;5017032;28;20749;-66
2024/01/06 11:52:25;;;;;;;11.87;7.80;;;4.20;99.90;;;;;;5017991;28;20550;-66
2024/01/06 11:54:55;;;;;;;10.97;7.33;;;3.90;99.90;;;;;;5018143;28;20458;-66
2024/01/06 11:57:22;;;;;;;10.60;7.50;;;4.00;99.90;;;;;;5017861;28;20760;-66
2024/01/06 11:59:52;;;;;;;13.13;9.00;;;3.80;99.90;;;;;;5018074;28;20520;-65
2024/01/06 12:02:21;;;;;;;11.70;8.73;;;3.70;99.90;;;;;;5018066;28;20831;-66
2024/01/06 12:04:51;;;;;;;14.60;9.17;;;3.70;99.90;;;;;;5018800;28;20460;-65
2024/01/06 12:07:19;;;;;;;11.43;8.67;;;3.60;99.90;;;;;;5018580;28;20509;-66
2024/01/06 12:09:48;;;;;;;12.10;10.13;;;3.60;99.90;;;;;;5018434;28;20510;-65
2024/01/06 12:12:18;;;;;;;14.37;10.50;;;3.60;99.90;;;;;;5018593;28;20801;-66
2024/01/06 12:14:46;;;;;;;15.70;12.00;;;3.50;99.90;;;;;;5019128;28;20527;-66
2024/01/06 12:17:15;;;;;;;14.47;11.67;;;3.40;99.90;;;;;;5018583;28;20471;-65
2024/01/06 12:19:43;;;;;;;16.43;11.90;;;3.30;99.90;;;;;;5018642;28;20460;-66
2024/01/06 12:22:14;;;;;;;17.60;12.20;;;3.30;99.90;;;;;;5018270;28;20460;-65
2024/01/06 12:24:42;;;;;;;16.87;12.63;;;3.30;99.90;;;;;;5018432;28;20480;-67
2024/01/06 12:27:11;;;;;;;21.77;13.97;;;3.30;99.90;;;;;;5018358;28;20514;-66
2024/01/06 12:29:40;;;;;;;22.80;13.60;;;3.10;99.90;;;;;;5018478;28;20500;-66
2024/01/06 12:32:08;;;;;;;21.57;13.37;;;3.10;99.90;;;;;;5018760;28;20921;-66
2024/01/06 12:34:39;;;;;;;18.90;12.97;;;3.10;99.90;;;;;;5017970;28;20937;-66
2024/01/06 12:37:07;;;;;;;18.17;13.43;;;3.00;99.90;;;;;;5017531;28;20460;-66
2024/01/06 12:39:35;;;;;;;20.00;13.70;;;3.00;99.90;;;;;;5017316;28;20464;-66
2024/01/06 12:42:03;;;;;;;22.07;14.37;;;3.10;99.90;;;;;;5017889;28;20475;-67